sensor_id;sensor_type;location;lat;lon;timestamp;P1;durP1;ratioP1;P2;durP2;ratioP2
20456;SDS011;10387;51.102;6.848;2023-05-10T00:01:16;13.03;;;10.03;;
20456;SDS011;10387;51.102;6.848;2023-05-10T00:03:42;12.37;;;9.67;;
20456;SDS011;10387;51.102;6.848;2023-05-10T00:06:08;17.23;;;9.53;;
20456;SDS011;10387;51.102;6.848;2023-05-10T00:08:34;12.93;;;9.60;;
20456;SDS011;10387;51.102;6.848;2023-05-10T00:11:00;13.17;;;10.00;;
20456;SDS011;10387;51.102;6.848;2023-05-10T00:13:26;12.07;;;10.30;;
20456;SDS011;10387;51.102;6.848;2023-05-10T00:15:52;12.00;;;9.70;;
20456;SDS011;10387;51.102;6.848;2023-05-10T00:18:18;12.37;;;9.23;;
20456;SDS011;10387;51.102;6.848;2023-05-10T00:20:45;14.67;;;10.97;;
20456;SDS011;10387;51.102;6.848;2023-05-10T00:23:11;15.70;;;11.10;;
20456;SDS011;10387;51.102;6.848;2023-05-10T00:25:38;13.33;;;10.63;;
20456;SDS011;10387;51.102;6.848;2023-05-10T00:28:04;14.70;;;10.80;;
20456;SDS011;10387;51.102;6.848;2023-05-10T00:30:30;15.37;;;11.33;;
20456;SDS011;10387;51.102;6.848;2023-05-10T00:32:56;15.43;;;11.47;;
20456;SDS011;10387;51.102;6.848;2023-05-10T00:35:22;13.20;;;10.67;;
20456;SDS011;10387;51.102;6.848;2023-05-10T00:37:48;15.10;;;11.53;;
20456;SDS011;10387;51.102;6.848;2023-05-10T00:40:14;14.87;;;11.07;;
20456;SDS011;10387;51.102;6.848;2023-05-10T00:42:43;14.70;;;10.73;;
20456;SDS011;10387;51.102;6.848;2023-05-10T00:45:09;15.07;;;11.37;;
20456;SDS011;10387;51.102;6.848;2023-05-10T00:47:36;15.50;;;11.43;;
20456;SDS011;10387;51.102;6.848;2023-05-10T00:50:03;15.37;;;11.93;;
20456;SDS011;10387;51.102;6.848;2023-05-10T00:52:30;17.00;;;12.07;;
20456;SDS011;10387;51.102;6.848;2023-05-10T00:54:57;15.87;;;11.37;;
20456;SDS011;10387;51.102;6.848;2023-05-10T00:57:24;15.70;;;11.67;;
20456;SDS011;10387;51.102;6.848;2023-05-10T00:59:50;15.07;;;11.60;;
20456;SDS011;10387;51.102;6.848;2023-05-10T01:02:16;13.43;;;10.33;;
20456;SDS011;10387;51.102;6.848;2023-05-10T01:04:42;15.23;;;11.40;;
20456;SDS011;10387;51.102;6.848;2023-05-10T01:07:08;14.20;;;10.23;;
20456;SDS011;10387;51.102;6.848;2023-05-10T01:09:36;12.10;;;9.77;;
20456;SDS011;10387;51.102;6.848;2023-05-10T01:12:02;14.33;;;11.27;;
20456;SDS011;10387;51.102;6.848;2023-05-10T01:14:29;13.67;;;9.57;;
20456;SDS011;10387;51.102;6.848;2023-05-10T01:16:55;12.70;;;9.90;;
20456;SDS011;10387;51.102;6.848;2023-05-10T01:19:22;13.40;;;9.67;;
20456;SDS011;10387;51.102;6.848;2023-05-10T01:21:51;12.87;;;9.67;;
20456;SDS011;10387;51.102;6.848;2023-05-10T01:24:34;13.00;;;9.93;;
20456;SDS011;10387;51.102;6.848;2023-05-10T01:27:17;13.03;;;9.67;;
20456;SDS011;10387;51.102;6.848;2023-05-10T01:32:41;12.20;;;9.50;;
20456;SDS011;10387;51.102;6.848;2023-05-10T01:35:23;11.93;;;8.73;;
20456;SDS011;10387;51.102;6.848;2023-05-10T01:37:59;12.73;;;9.77;;
20456;SDS011;10387;51.102;6.848;2023-05-10T01:43:04;13.27;;;10.27;;
20456;SDS011;10387;51.102;6.848;2023-05-10T01:45:32;12.37;;;8.90;;
20456;SDS011;10387;51.102;6.848;2023-05-10T01:48:09;12.10;;;9.30;;
20456;SDS011;10387;51.102;6.848;2023-05-10T01:50:36;11.10;;;8.67;;
20456;SDS011;10387;51.102;6.848;2023-05-10T01:53:06;11.20;;;8.57;;
20456;SDS011;10387;51.102;6.848;2023-05-10T01:55:33;11.70;;;8.60;;
20456;SDS011;10387;51.102;6.848;2023-05-10T01:58:05;11.33;;;8.70;;
20456;SDS011;10387;51.102;6.848;2023-05-10T02:00:32;10.57;;;7.90;;
20456;SDS011;10387;51.102;6.848;2023-05-10T02:02:59;9.13;;;7.53;;
20456;SDS011;10387;51.102;6.848;2023-05-10T02:05:26;14.47;;;8.27;;
20456;SDS011;10387;51.102;6.848;2023-05-10T02:07:54;10.70;;;7.37;;
20456;SDS011;10387;51.102;6.848;2023-05-10T02:10:21;9.57;;;6.97;;
20456;SDS011;10387;51.102;6.848;2023-05-10T02:12:47;8.97;;;7.23;;
20456;SDS011;10387;51.102;6.848;2023-05-10T02:15:15;10.00;;;6.73;;
20456;SDS011;10387;51.102;6.848;2023-05-10T02:17:43;8.27;;;6.50;;
20456;SDS011;10387;51.102;6.848;2023-05-10T02:20:10;7.90;;;6.10;;
20456;SDS011;10387;51.102;6.848;2023-05-10T02:22:37;9.43;;;6.13;;
20456;SDS011;10387;51.102;6.848;2023-05-10T02:25:04;7.77;;;5.67;;
20456;SDS011;10387;51.102;6.848;2023-05-10T02:27:31;7.30;;;5.97;;
20456;SDS011;10387;51.102;6.848;2023-05-10T02:29:57;7.37;;;5.50;;
20456;SDS011;10387;51.102;6.848;2023-05-10T02:32:24;7.40;;;5.80;;
20456;SDS011;10387;51.102;6.848;2023-05-10T02:34:50;8.13;;;5.80;;
20456;SDS011;10387;51.102;6.848;2023-05-10T02:37:18;7.53;;;5.57;;
20456;SDS011;10387;51.102;6.848;2023-05-10T02:39:46;5.87;;;5.27;;
20456;SDS011;10387;51.102;6.848;2023-05-10T02:42:20;7.20;;;5.27;;
20456;SDS011;10387;51.102;6.848;2023-05-10T02:44:50;8.30;;;6.23;;
20456;SDS011;10387;51.102;6.848;2023-05-10T02:47:17;6.50;;;5.70;;
20456;SDS011;10387;51.102;6.848;2023-05-10T02:49:43;7.47;;;6.23;;
20456;SDS011;10387;51.102;6.848;2023-05-10T02:52:10;8.17;;;6.73;;
20456;SDS011;10387;51.102;6.848;2023-05-10T02:54:41;7.67;;;6.23;;
20456;SDS011;10387;51.102;6.848;2023-05-10T02:57:10;8.80;;;7.03;;
20456;SDS011;10387;51.102;6.848;2023-05-10T02:59:37;7.90;;;6.03;;
20456;SDS011;10387;51.102;6.848;2023-05-10T03:02:03;9.93;;;6.97;;
20456;SDS011;10387;51.102;6.848;2023-05-10T03:04:29;8.50;;;7.00;;
20456;SDS011;10387;51.102;6.848;2023-05-10T03:06:56;8.67;;;6.80;;
20456;SDS011;10387;51.102;6.848;2023-05-10T03:09:23;8.33;;;6.80;;
20456;SDS011;10387;51.102;6.848;2023-05-10T03:11:54;8.50;;;6.87;;
20456;SDS011;10387;51.102;6.848;2023-05-10T03:16:52;8.43;;;6.40;;
20456;SDS011;10387;51.102;6.848;2023-05-10T03:19:52;8.83;;;6.97;;
20456;SDS011;10387;51.102;6.848;2023-05-10T03:22:11;8.83;;;6.60;;
20456;SDS011;10387;51.102;6.848;2023-05-10T03:24:39;10.17;;;7.47;;
20456;SDS011;10387;51.102;6.848;2023-05-10T03:27:07;9.80;;;7.03;;
20456;SDS011;10387;51.102;6.848;2023-05-10T03:29:33;10.07;;;7.47;;
20456;SDS011;10387;51.102;6.848;2023-05-10T03:32:01;9.37;;;7.17;;
20456;SDS011;10387;51.102;6.848;2023-05-10T03:34:29;11.67;;;8.17;;
20456;SDS011;10387;51.102;6.848;2023-05-10T03:36:57;10.97;;;7.53;;
20456;SDS011;10387;51.102;6.848;2023-05-10T03:39:24;10.50;;;8.17;;
20456;SDS011;10387;51.102;6.848;2023-05-10T03:41:55;13.60;;;8.73;;
20456;SDS011;10387;51.102;6.848;2023-05-10T03:44:21;11.43;;;8.27;;
20456;SDS011;10387;51.102;6.848;2023-05-10T03:46:48;12.80;;;9.13;;
20456;SDS011;10387;51.102;6.848;2023-05-10T03:49:14;11.97;;;9.20;;
20456;SDS011;10387;51.102;6.848;2023-05-10T03:51:40;11.30;;;8.80;;
20456;SDS011;10387;51.102;6.848;2023-05-10T03:54:06;12.57;;;8.80;;
20456;SDS011;10387;51.102;6.848;2023-05-10T03:56:32;12.43;;;9.97;;
20456;SDS011;10387;51.102;6.848;2023-05-10T03:58:59;13.20;;;10.30;;
20456;SDS011;10387;51.102;6.848;2023-05-10T04:01:25;12.33;;;9.43;;
20456;SDS011;10387;51.102;6.848;2023-05-10T04:03:51;13.73;;;10.13;;
20456;SDS011;10387;51.102;6.848;2023-05-10T04:06:17;14.93;;;10.50;;
20456;SDS011;10387;51.102;6.848;2023-05-10T04:08:44;14.07;;;10.40;;
20456;SDS011;10387;51.102;6.848;2023-05-10T04:11:10;13.00;;;10.03;;
20456;SDS011;10387;51.102;6.848;2023-05-10T04:13:37;16.03;;;10.83;;
20456;SDS011;10387;51.102;6.848;2023-05-10T04:16:03;12.93;;;10.47;;
20456;SDS011;10387;51.102;6.848;2023-05-10T04:18:30;12.93;;;9.33;;
20456;SDS011;10387;51.102;6.848;2023-05-10T04:20:56;12.97;;;9.73;;
20456;SDS011;10387;51.102;6.848;2023-05-10T04:23:23;14.23;;;10.37;;
20456;SDS011;10387;51.102;6.848;2023-05-10T04:25:49;15.33;;;10.87;;
20456;SDS011;10387;51.102;6.848;2023-05-10T04:28:15;14.83;;;10.83;;
20456;SDS011;10387;51.102;6.848;2023-05-10T04:30:41;14.13;;;11.00;;
20456;SDS011;10387;51.102;6.848;2023-05-10T04:33:07;16.53;;;11.33;;
20456;SDS011;10387;51.102;6.848;2023-05-10T04:35:33;15.80;;;11.70;;
20456;SDS011;10387;51.102;6.848;2023-05-10T04:37:59;16.17;;;11.80;;
20456;SDS011;10387;51.102;6.848;2023-05-10T04:40:25;15.73;;;11.27;;
20456;SDS011;10387;51.102;6.848;2023-05-10T04:42:51;16.63;;;12.00;;
20456;SDS011;10387;51.102;6.848;2023-05-10T04:45:17;19.03;;;12.80;;
20456;SDS011;10387;51.102;6.848;2023-05-10T04:47:43;18.77;;;13.83;;
20456;SDS011;10387;51.102;6.848;2023-05-10T04:50:09;20.70;;;13.87;;
20456;SDS011;10387;51.102;6.848;2023-05-10T04:52:35;19.93;;;14.27;;
20456;SDS011;10387;51.102;6.848;2023-05-10T04:55:02;22.17;;;15.67;;
20456;SDS011;10387;51.102;6.848;2023-05-10T04:57:29;21.87;;;15.37;;
20456;SDS011;10387;51.102;6.848;2023-05-10T04:59:55;23.57;;;16.93;;
20456;SDS011;10387;51.102;6.848;2023-05-10T05:02:22;23.37;;;16.60;;
20456;SDS011;10387;51.102;6.848;2023-05-10T05:04:48;21.30;;;15.90;;
20456;SDS011;10387;51.102;6.848;2023-05-10T05:07:14;21.40;;;15.03;;
20456;SDS011;10387;51.102;6.848;2023-05-10T05:09:40;19.37;;;14.97;;
20456;SDS011;10387;51.102;6.848;2023-05-10T05:12:06;19.40;;;14.40;;
20456;SDS011;10387;51.102;6.848;2023-05-10T05:14:32;17.23;;;13.73;;
20456;SDS011;10387;51.102;6.848;2023-05-10T05:16:58;19.37;;;14.63;;
20456;SDS011;10387;51.102;6.848;2023-05-10T05:19:24;18.47;;;13.17;;
20456;SDS011;10387;51.102;6.848;2023-05-10T05:21:50;15.07;;;12.70;;
20456;SDS011;10387;51.102;6.848;2023-05-10T05:24:16;14.60;;;12.07;;
20456;SDS011;10387;51.102;6.848;2023-05-10T05:26:42;16.30;;;11.90;;
20456;SDS011;10387;51.102;6.848;2023-05-10T05:29:08;13.60;;;11.17;;
20456;SDS011;10387;51.102;6.848;2023-05-10T05:31:35;16.10;;;11.67;;
20456;SDS011;10387;51.102;6.848;2023-05-10T05:34:01;15.07;;;11.47;;
20456;SDS011;10387;51.102;6.848;2023-05-10T05:36:27;18.10;;;11.47;;
20456;SDS011;10387;51.102;6.848;2023-05-10T05:38:53;19.30;;;12.60;;
20456;SDS011;10387;51.102;6.848;2023-05-10T05:41:19;15.60;;;11.97;;
20456;SDS011;10387;51.102;6.848;2023-05-10T05:43:46;15.57;;;12.20;;
20456;SDS011;10387;51.102;6.848;2023-05-10T05:46:12;13.53;;;11.50;;
20456;SDS011;10387;51.102;6.848;2023-05-10T05:48:38;16.70;;;12.50;;
20456;SDS011;10387;51.102;6.848;2023-05-10T05:51:04;14.43;;;12.03;;
20456;SDS011;10387;51.102;6.848;2023-05-10T05:53:30;16.73;;;11.27;;
20456;SDS011;10387;51.102;6.848;2023-05-10T05:55:57;15.77;;;11.53;;
20456;SDS011;10387;51.102;6.848;2023-05-10T05:58:24;17.20;;;11.27;;
20456;SDS011;10387;51.102;6.848;2023-05-10T06:00:51;15.40;;;11.57;;
20456;SDS011;10387;51.102;6.848;2023-05-10T06:03:17;15.47;;;12.67;;
20456;SDS011;10387;51.102;6.848;2023-05-10T06:05:44;14.77;;;11.70;;
20456;SDS011;10387;51.102;6.848;2023-05-10T06:08:10;19.43;;;12.73;;
20456;SDS011;10387;51.102;6.848;2023-05-10T06:10:36;17.77;;;13.37;;
20456;SDS011;10387;51.102;6.848;2023-05-10T06:13:02;17.77;;;13.90;;
20456;SDS011;10387;51.102;6.848;2023-05-10T06:15:28;19.57;;;14.00;;
20456;SDS011;10387;51.102;6.848;2023-05-10T06:17:54;21.93;;;14.53;;
20456;SDS011;10387;51.102;6.848;2023-05-10T06:20:20;23.57;;;14.60;;
20456;SDS011;10387;51.102;6.848;2023-05-10T06:22:46;21.07;;;15.07;;
20456;SDS011;10387;51.102;6.848;2023-05-10T06:25:12;21.87;;;14.80;;
20456;SDS011;10387;51.102;6.848;2023-05-10T06:27:39;22.60;;;13.97;;
20456;SDS011;10387;51.102;6.848;2023-05-10T06:30:06;21.37;;;14.97;;
20456;SDS011;10387;51.102;6.848;2023-05-10T06:32:33;21.83;;;14.50;;
20456;SDS011;10387;51.102;6.848;2023-05-10T06:34:59;23.27;;;16.10;;
20456;SDS011;10387;51.102;6.848;2023-05-10T06:37:25;22.20;;;15.77;;
20456;SDS011;10387;51.102;6.848;2023-05-10T06:39:51;23.80;;;15.80;;
20456;SDS011;10387;51.102;6.848;2023-05-10T06:42:17;22.73;;;15.50;;
20456;SDS011;10387;51.102;6.848;2023-05-10T06:44:45;22.97;;;16.43;;
20456;SDS011;10387;51.102;6.848;2023-05-10T06:47:12;21.63;;;15.07;;
20456;SDS011;10387;51.102;6.848;2023-05-10T06:49:38;23.97;;;15.90;;
20456;SDS011;10387;51.102;6.848;2023-05-10T06:52:05;23.30;;;15.77;;
20456;SDS011;10387;51.102;6.848;2023-05-10T06:54:31;22.77;;;15.57;;
20456;SDS011;10387;51.102;6.848;2023-05-10T06:56:57;23.60;;;15.87;;
20456;SDS011;10387;51.102;6.848;2023-05-10T06:59:23;19.10;;;14.40;;
20456;SDS011;10387;51.102;6.848;2023-05-10T07:01:49;22.67;;;14.50;;
20456;SDS011;10387;51.102;6.848;2023-05-10T07:04:15;18.17;;;13.23;;
20456;SDS011;10387;51.102;6.848;2023-05-10T07:06:42;18.07;;;13.40;;
20456;SDS011;10387;51.102;6.848;2023-05-10T07:09:09;19.60;;;13.70;;
20456;SDS011;10387;51.102;6.848;2023-05-10T07:11:36;18.30;;;12.83;;
20456;SDS011;10387;51.102;6.848;2023-05-10T07:14:02;17.50;;;12.80;;
20456;SDS011;10387;51.102;6.848;2023-05-10T07:16:28;21.83;;;13.30;;
20456;SDS011;10387;51.102;6.848;2023-05-10T07:18:55;17.10;;;12.60;;
20456;SDS011;10387;51.102;6.848;2023-05-10T07:21:21;21.67;;;13.50;;
20456;SDS011;10387;51.102;6.848;2023-05-10T07:23:50;20.37;;;13.77;;
20456;SDS011;10387;51.102;6.848;2023-05-10T07:26:16;20.50;;;14.17;;
20456;SDS011;10387;51.102;6.848;2023-05-10T07:28:42;19.87;;;14.57;;
20456;SDS011;10387;51.102;6.848;2023-05-10T07:31:08;21.27;;;14.37;;
20456;SDS011;10387;51.102;6.848;2023-05-10T07:33:34;17.73;;;13.37;;
20456;SDS011;10387;51.102;6.848;2023-05-10T07:36:00;20.97;;;14.47;;
20456;SDS011;10387;51.102;6.848;2023-05-10T07:38:26;19.70;;;14.90;;
20456;SDS011;10387;51.102;6.848;2023-05-10T07:40:53;20.17;;;14.30;;
20456;SDS011;10387;51.102;6.848;2023-05-10T07:43:19;19.53;;;14.23;;
20456;SDS011;10387;51.102;6.848;2023-05-10T07:45:45;18.80;;;14.10;;
20456;SDS011;10387;51.102;6.848;2023-05-10T07:48:11;18.53;;;13.90;;
20456;SDS011;10387;51.102;6.848;2023-05-10T07:50:37;20.20;;;14.43;;
20456;SDS011;10387;51.102;6.848;2023-05-10T07:53:03;17.67;;;13.80;;
20456;SDS011;10387;51.102;6.848;2023-05-10T07:55:29;18.27;;;14.27;;
20456;SDS011;10387;51.102;6.848;2023-05-10T07:57:55;19.40;;;13.90;;
20456;SDS011;10387;51.102;6.848;2023-05-10T08:00:21;18.47;;;13.97;;
20456;SDS011;10387;51.102;6.848;2023-05-10T08:02:47;20.77;;;13.07;;
20456;SDS011;10387;51.102;6.848;2023-05-10T08:05:14;15.87;;;13.53;;
20456;SDS011;10387;51.102;6.848;2023-05-10T08:07:40;20.30;;;14.27;;
20456;SDS011;10387;51.102;6.848;2023-05-10T08:10:07;19.40;;;13.60;;
20456;SDS011;10387;51.102;6.848;2023-05-10T08:12:34;17.17;;;12.83;;
20456;SDS011;10387;51.102;6.848;2023-05-10T08:15:00;19.90;;;14.27;;
20456;SDS011;10387;51.102;6.848;2023-05-10T08:17:26;21.10;;;14.53;;
20456;SDS011;10387;51.102;6.848;2023-05-10T08:19:53;18.07;;;14.03;;
20456;SDS011;10387;51.102;6.848;2023-05-10T08:22:19;19.77;;;14.50;;
20456;SDS011;10387;51.102;6.848;2023-05-10T08:24:45;18.10;;;13.70;;
20456;SDS011;10387;51.102;6.848;2023-05-10T08:27:11;21.17;;;14.73;;
20456;SDS011;10387;51.102;6.848;2023-05-10T08:29:37;22.23;;;15.23;;
20456;SDS011;10387;51.102;6.848;2023-05-10T08:32:04;27.43;;;17.30;;
20456;SDS011;10387;51.102;6.848;2023-05-10T08:34:30;31.27;;;19.37;;
20456;SDS011;10387;51.102;6.848;2023-05-10T08:36:56;32.27;;;20.17;;
20456;SDS011;10387;51.102;6.848;2023-05-10T08:39:22;34.57;;;20.87;;
20456;SDS011;10387;51.102;6.848;2023-05-10T08:41:48;33.60;;;21.60;;
20456;SDS011;10387;51.102;6.848;2023-05-10T08:44:16;33.40;;;20.63;;
20456;SDS011;10387;51.102;6.848;2023-05-10T08:46:44;35.90;;;21.17;;
20456;SDS011;10387;51.102;6.848;2023-05-10T08:49:16;33.20;;;19.97;;
20456;SDS011;10387;51.102;6.848;2023-05-10T08:51:44;31.63;;;20.80;;
20456;SDS011;10387;51.102;6.848;2023-05-10T08:54:13;30.33;;;19.80;;
20456;SDS011;10387;51.102;6.848;2023-05-10T08:56:39;28.43;;;19.53;;
20456;SDS011;10387;51.102;6.848;2023-05-10T08:59:05;30.83;;;19.93;;
20456;SDS011;10387;51.102;6.848;2023-05-10T09:01:31;30.10;;;19.67;;
20456;SDS011;10387;51.102;6.848;2023-05-10T09:03:58;30.57;;;19.47;;
20456;SDS011;10387;51.102;6.848;2023-05-10T09:06:24;32.03;;;19.67;;
20456;SDS011;10387;51.102;6.848;2023-05-10T09:08:51;29.80;;;19.17;;
20456;SDS011;10387;51.102;6.848;2023-05-10T09:11:18;26.50;;;18.47;;
20456;SDS011;10387;51.102;6.848;2023-05-10T09:13:46;27.33;;;18.57;;
20456;SDS011;10387;51.102;6.848;2023-05-10T09:16:13;26.77;;;18.00;;
20456;SDS011;10387;51.102;6.848;2023-05-10T09:18:39;29.03;;;19.10;;
20456;SDS011;10387;51.102;6.848;2023-05-10T09:21:05;28.23;;;18.57;;
20456;SDS011;10387;51.102;6.848;2023-05-10T09:23:31;28.70;;;18.90;;
20456;SDS011;10387;51.102;6.848;2023-05-10T09:26:06;27.17;;;18.43;;
20456;SDS011;10387;51.102;6.848;2023-05-10T09:29:18;28.23;;;19.83;;
20456;SDS011;10387;51.102;6.848;2023-05-10T09:31:19;30.87;;;18.90;;
20456;SDS011;10387;51.102;6.848;2023-05-10T09:33:46;28.33;;;19.03;;
20456;SDS011;10387;51.102;6.848;2023-05-10T09:36:12;27.33;;;18.90;;
20456;SDS011;10387;51.102;6.848;2023-05-10T09:38:45;26.30;;;18.10;;
20456;SDS011;10387;51.102;6.848;2023-05-10T09:41:16;30.10;;;19.53;;
20456;SDS011;10387;51.102;6.848;2023-05-10T09:43:43;31.63;;;21.73;;
20456;SDS011;10387;51.102;6.848;2023-05-10T09:46:09;29.43;;;19.40;;
20456;SDS011;10387;51.102;6.848;2023-05-10T09:48:40;30.20;;;19.77;;
20456;SDS011;10387;51.102;6.848;2023-05-10T09:51:07;30.30;;;19.93;;
20456;SDS011;10387;51.102;6.848;2023-05-10T09:53:33;32.43;;;20.93;;
20456;SDS011;10387;51.102;6.848;2023-05-10T09:55:59;28.83;;;19.20;;
20456;SDS011;10387;51.102;6.848;2023-05-10T09:58:26;28.00;;;19.23;;
20456;SDS011;10387;51.102;6.848;2023-05-10T10:00:52;28.20;;;18.57;;
20456;SDS011;10387;51.102;6.848;2023-05-10T10:03:19;28.30;;;18.07;;
20456;SDS011;10387;51.102;6.848;2023-05-10T10:05:46;29.63;;;19.30;;
20456;SDS011;10387;51.102;6.848;2023-05-10T10:08:14;24.10;;;18.10;;
20456;SDS011;10387;51.102;6.848;2023-05-10T10:10:41;27.63;;;17.73;;
20456;SDS011;10387;51.102;6.848;2023-05-10T10:13:11;25.60;;;17.37;;
20456;SDS011;10387;51.102;6.848;2023-05-10T10:15:38;24.40;;;16.97;;
20456;SDS011;10387;51.102;6.848;2023-05-10T10:18:04;22.97;;;17.23;;
20456;SDS011;10387;51.102;6.848;2023-05-10T10:20:32;24.33;;;16.83;;
20456;SDS011;10387;51.102;6.848;2023-05-10T10:22:58;24.57;;;16.43;;
20456;SDS011;10387;51.102;6.848;2023-05-10T10:25:24;24.07;;;16.63;;
20456;SDS011;10387;51.102;6.848;2023-05-10T10:35:12;20.67;;;16.37;;
20456;SDS011;10387;51.102;6.848;2023-05-10T10:37:46;24.70;;;16.73;;
20456;SDS011;10387;51.102;6.848;2023-05-10T10:40:31;20.10;;;14.93;;
20456;SDS011;10387;51.102;6.848;2023-05-10T10:42:58;20.10;;;15.40;;
20456;SDS011;10387;51.102;6.848;2023-05-10T10:45:24;18.10;;;13.90;;
20456;SDS011;10387;51.102;6.848;2023-05-10T10:50:44;15.80;;;13.50;;
20456;SDS011;10387;51.102;6.848;2023-05-10T10:53:11;18.13;;;13.80;;
20456;SDS011;10387;51.102;6.848;2023-05-10T10:55:45;19.10;;;14.43;;
20456;SDS011;10387;51.102;6.848;2023-05-10T10:58:12;19.00;;;13.90;;
20456;SDS011;10387;51.102;6.848;2023-05-10T11:01:09;17.83;;;13.27;;
20456;SDS011;10387;51.102;6.848;2023-05-10T11:03:36;21.27;;;15.10;;
20456;SDS011;10387;51.102;6.848;2023-05-10T11:06:02;19.17;;;14.53;;
20456;SDS011;10387;51.102;6.848;2023-05-10T11:08:30;18.20;;;14.13;;
20456;SDS011;10387;51.102;6.848;2023-05-10T11:15:55;17.23;;;11.93;;
20456;SDS011;10387;51.102;6.848;2023-05-10T11:21:00;16.83;;;12.77;;
20456;SDS011;10387;51.102;6.848;2023-05-10T11:26:09;14.70;;;11.70;;
20456;SDS011;10387;51.102;6.848;2023-05-10T11:28:41;16.03;;;11.90;;
20456;SDS011;10387;51.102;6.848;2023-05-10T11:31:07;14.73;;;10.97;;
20456;SDS011;10387;51.102;6.848;2023-05-10T11:33:43;17.73;;;11.40;;
20456;SDS011;10387;51.102;6.848;2023-05-10T11:36:19;13.90;;;10.83;;
20456;SDS011;10387;51.102;6.848;2023-05-10T11:38:46;13.87;;;11.30;;
20456;SDS011;10387;51.102;6.848;2023-05-10T11:41:12;16.60;;;12.10;;
20456;SDS011;10387;51.102;6.848;2023-05-10T11:43:39;15.47;;;11.23;;
20456;SDS011;10387;51.102;6.848;2023-05-10T11:46:06;13.73;;;10.40;;
20456;SDS011;10387;51.102;6.848;2023-05-10T11:48:32;14.50;;;11.00;;
20456;SDS011;10387;51.102;6.848;2023-05-10T11:51:01;16.37;;;11.43;;
20456;SDS011;10387;51.102;6.848;2023-05-10T11:53:29;15.70;;;11.20;;
20456;SDS011;10387;51.102;6.848;2023-05-10T11:55:58;13.83;;;10.43;;
20456;SDS011;10387;51.102;6.848;2023-05-10T11:58:28;12.67;;;9.90;;
20456;SDS011;10387;51.102;6.848;2023-05-10T12:00:55;13.37;;;9.57;;
20456;SDS011;10387;51.102;6.848;2023-05-10T12:03:21;11.33;;;9.27;;
20456;SDS011;10387;51.102;6.848;2023-05-10T12:05:48;12.23;;;9.77;;
20456;SDS011;10387;51.102;6.848;2023-05-10T12:08:14;12.20;;;9.60;;
20456;SDS011;10387;51.102;6.848;2023-05-10T12:10:41;11.57;;;9.03;;
20456;SDS011;10387;51.102;6.848;2023-05-10T12:13:11;10.70;;;9.33;;
20456;SDS011;10387;51.102;6.848;2023-05-10T12:15:38;12.50;;;9.57;;
20456;SDS011;10387;51.102;6.848;2023-05-10T12:18:04;11.57;;;9.70;;
20456;SDS011;10387;51.102;6.848;2023-05-10T12:20:30;11.83;;;9.13;;
20456;SDS011;10387;51.102;6.848;2023-05-10T12:22:57;11.37;;;8.63;;
20456;SDS011;10387;51.102;6.848;2023-05-10T12:25:29;9.27;;;8.30;;
20456;SDS011;10387;51.102;6.848;2023-05-10T12:27:55;10.53;;;8.10;;
20456;SDS011;10387;51.102;6.848;2023-05-10T12:30:23;9.17;;;7.83;;
20456;SDS011;10387;51.102;6.848;2023-05-10T12:32:50;9.87;;;7.97;;
20456;SDS011;10387;51.102;6.848;2023-05-10T12:35:16;11.33;;;8.87;;
20456;SDS011;10387;51.102;6.848;2023-05-10T12:37:46;9.10;;;7.97;;
20456;SDS011;10387;51.102;6.848;2023-05-10T12:40:13;9.90;;;8.40;;
20456;SDS011;10387;51.102;6.848;2023-05-10T12:42:39;10.67;;;8.50;;
20456;SDS011;10387;51.102;6.848;2023-05-10T12:45:06;10.03;;;8.57;;
20456;SDS011;10387;51.102;6.848;2023-05-10T12:47:32;10.57;;;8.87;;
20456;SDS011;10387;51.102;6.848;2023-05-10T12:49:59;10.30;;;8.63;;
20456;SDS011;10387;51.102;6.848;2023-05-10T12:52:26;10.50;;;7.93;;
20456;SDS011;10387;51.102;6.848;2023-05-10T12:54:52;10.70;;;8.30;;
20456;SDS011;10387;51.102;6.848;2023-05-10T12:57:20;10.50;;;8.13;;
20456;SDS011;10387;51.102;6.848;2023-05-10T12:59:46;8.93;;;7.77;;
20456;SDS011;10387;51.102;6.848;2023-05-10T13:02:12;10.57;;;7.70;;
20456;SDS011;10387;51.102;6.848;2023-05-10T13:04:39;7.93;;;6.73;;
20456;SDS011;10387;51.102;6.848;2023-05-10T13:07:07;7.63;;;6.47;;
20456;SDS011;10387;51.102;6.848;2023-05-10T13:09:33;7.20;;;6.33;;
20456;SDS011;10387;51.102;6.848;2023-05-10T13:11:59;7.27;;;6.57;;
20456;SDS011;10387;51.102;6.848;2023-05-10T13:14:25;8.00;;;6.53;;
20456;SDS011;10387;51.102;6.848;2023-05-10T13:16:51;16.73;;;12.83;;
20456;SDS011;10387;51.102;6.848;2023-05-10T13:19:17;14.33;;;11.73;;
20456;SDS011;10387;51.102;6.848;2023-05-10T13:21:43;16.37;;;13.87;;
20456;SDS011;10387;51.102;6.848;2023-05-10T13:24:10;19.07;;;14.77;;
20456;SDS011;10387;51.102;6.848;2023-05-10T13:26:38;17.20;;;14.60;;
20456;SDS011;10387;51.102;6.848;2023-05-10T13:29:05;17.53;;;13.37;;
20456;SDS011;10387;51.102;6.848;2023-05-10T13:31:31;19.17;;;14.97;;
20456;SDS011;10387;51.102;6.848;2023-05-10T13:33:57;18.93;;;14.93;;
20456;SDS011;10387;51.102;6.848;2023-05-10T13:36:23;18.93;;;14.53;;
20456;SDS011;10387;51.102;6.848;2023-05-10T13:38:49;23.30;;;16.77;;
20456;SDS011;10387;51.102;6.848;2023-05-10T13:41:15;21.30;;;15.80;;
20456;SDS011;10387;51.102;6.848;2023-05-10T13:43:42;20.87;;;15.47;;
20456;SDS011;10387;51.102;6.848;2023-05-10T13:46:08;18.73;;;14.33;;
20456;SDS011;10387;51.102;6.848;2023-05-10T13:48:34;15.47;;;11.90;;
20456;SDS011;10387;51.102;6.848;2023-05-10T13:51:02;15.13;;;11.30;;
20456;SDS011;10387;51.102;6.848;2023-05-10T13:53:28;16.33;;;12.20;;
20456;SDS011;10387;51.102;6.848;2023-05-10T13:55:54;14.60;;;11.50;;
20456;SDS011;10387;51.102;6.848;2023-05-10T13:58:20;17.07;;;12.87;;
20456;SDS011;10387;51.102;6.848;2023-05-10T14:00:46;15.90;;;12.43;;
20456;SDS011;10387;51.102;6.848;2023-05-10T14:03:13;16.43;;;12.27;;
20456;SDS011;10387;51.102;6.848;2023-05-10T14:05:39;13.23;;;10.57;;
20456;SDS011;10387;51.102;6.848;2023-05-10T14:08:05;13.90;;;9.87;;
20456;SDS011;10387;51.102;6.848;2023-05-10T14:10:32;12.63;;;8.87;;
20456;SDS011;10387;51.102;6.848;2023-05-10T14:12:58;11.93;;;9.10;;
20456;SDS011;10387;51.102;6.848;2023-05-10T14:15:24;10.20;;;9.03;;
20456;SDS011;10387;51.102;6.848;2023-05-10T14:17:51;11.93;;;9.23;;
20456;SDS011;10387;51.102;6.848;2023-05-10T14:20:17;12.67;;;9.23;;
20456;SDS011;10387;51.102;6.848;2023-05-10T14:22:43;10.97;;;8.37;;
20456;SDS011;10387;51.102;6.848;2023-05-10T14:25:09;12.90;;;9.30;;
20456;SDS011;10387;51.102;6.848;2023-05-10T14:27:36;12.20;;;9.17;;
20456;SDS011;10387;51.102;6.848;2023-05-10T14:30:02;12.93;;;9.23;;
20456;SDS011;10387;51.102;6.848;2023-05-10T14:32:28;12.43;;;9.73;;
20456;SDS011;10387;51.102;6.848;2023-05-10T14:34:57;10.70;;;9.07;;
20456;SDS011;10387;51.102;6.848;2023-05-10T14:37:23;11.43;;;9.03;;
20456;SDS011;10387;51.102;6.848;2023-05-10T14:39:49;10.40;;;8.97;;
20456;SDS011;10387;51.102;6.848;2023-05-10T14:42:15;11.23;;;9.07;;
20456;SDS011;10387;51.102;6.848;2023-05-10T14:44:42;11.03;;;8.07;;
20456;SDS011;10387;51.102;6.848;2023-05-10T14:47:08;11.63;;;7.97;;
20456;SDS011;10387;51.102;6.848;2023-05-10T14:49:34;10.27;;;8.23;;
20456;SDS011;10387;51.102;6.848;2023-05-10T14:52:00;9.37;;;7.67;;
20456;SDS011;10387;51.102;6.848;2023-05-10T14:54:27;10.67;;;8.03;;
20456;SDS011;10387;51.102;6.848;2023-05-10T14:56:53;10.67;;;8.23;;